Balsam Grove, North Carolina
Current Conditions -  °F | °C
As of 3:54 PM on Thursday 27 Nov 2014 (Local Time) from KAVL Reporting Station
Overcast Overcast  
Wind Chill: 28°   Ceiling: 3200
Heat Index: 36°   Visibility: 10mi
Dew Point: 24°   Wind: 13mph
Humidity: 62%   Direction: 350°N
Pressure: 30.19"   Gusts: NA
Location:  35.23°N, 82.87°W
Report Text: KAVL 272054Z AUTO 35011KT 10SM OVC032 02/M04 A3019 RMK AO2 SLP230 60000 T00221044 51010
Loading
Personal Weather Stations






























Interactive Weather Map New forecast layout! Learn more

10-Day Weather Forecast

Advertisements
Track Severe Weather on mobile